createdAt,value
2018-07-14T00:02:01.611Z,10.10
2018-07-14T00:04:29.972Z,10.27
2018-07-14T00:06:58.425Z,10.30
2018-07-14T00:09:26.777Z,9.90
2018-07-14T00:11:55.187Z,9.43
2018-07-14T00:14:23.544Z,8.97
2018-07-14T00:16:51.895Z,10.03
2018-07-14T00:19:20.305Z,10.00
2018-07-14T00:21:48.639Z,9.50
2018-07-14T00:24:17.011Z,9.50
2018-07-14T00:26:45.395Z,10.27
2018-07-14T00:29:13.719Z,10.73
2018-07-14T00:31:42.103Z,10.60
2018-07-14T00:34:11.419Z,10.00
2018-07-14T00:36:39.791Z,10.33
2018-07-14T00:39:08.188Z,10.37
2018-07-14T00:41:36.553Z,10.80
2018-07-14T00:44:04.935Z,11.03
2018-07-14T00:46:33.287Z,11.30
2018-07-14T00:49:01.598Z,10.27
2018-07-14T00:51:30.005Z,11.33
2018-07-14T00:53:58.371Z,10.40
2018-07-14T00:56:26.826Z,10.67
2018-07-14T00:58:55.133Z,11.83
2018-07-14T01:01:23.468Z,11.23
2018-07-14T01:03:51.768Z,9.77
2018-07-14T01:06:20.160Z,11.17
2018-07-14T01:08:48.864Z,11.57
2018-07-14T01:11:17.229Z,11.50
2018-07-14T01:13:45.544Z,11.37
2018-07-14T01:16:13.897Z,10.77
2018-07-14T01:18:42.216Z,11.10
2018-07-14T01:21:10.627Z,11.50
2018-07-14T01:23:39.008Z,11.03
2018-07-14T01:26:07.392Z,10.80
2018-07-14T01:28:35.696Z,10.80
2018-07-14T01:31:04.149Z,11.37
2018-07-14T01:33:32.590Z,11.60
2018-07-14T01:36:00.958Z,11.17
2018-07-14T01:38:29.400Z,10.70
2018-07-14T01:40:57.875Z,10.80
2018-07-14T01:43:26.196Z,10.90
2018-07-14T01:45:54.559Z,10.67
2018-07-14T01:48:22.900Z,10.90
2018-07-14T01:50:52.855Z,10.90
2018-07-14T01:53:21.328Z,11.33
2018-07-14T01:55:49.785Z,10.83
2018-07-14T01:58:18.282Z,10.80
2018-07-14T02:00:46.635Z,11.10
2018-07-14T02:03:14.984Z,11.60
2018-07-14T02:05:43.340Z,11.67
2018-07-14T02:08:11.703Z,12.17
2018-07-14T02:10:40.154Z,12.20
2018-07-14T02:13:08.625Z,12.00
2018-07-14T02:15:37.023Z,11.70
2018-07-14T02:18:05.362Z,12.13
2018-07-14T02:20:33.704Z,11.67
2018-07-14T02:23:02.023Z,12.33
2018-07-14T02:25:30.348Z,11.80
2018-07-14T02:27:58.692Z,11.57
2018-07-14T02:30:27.020Z,12.10
2018-07-14T02:32:55.405Z,10.83
2018-07-14T02:35:23.713Z,12.13
2018-07-14T02:37:52.106Z,12.50
2018-07-14T02:40:20.417Z,12.43
2018-07-14T02:42:48.823Z,11.60
2018-07-14T02:45:17.274Z,11.67
2018-07-14T02:47:45.668Z,11.90
2018-07-14T02:50:14.006Z,11.90
2018-07-14T02:52:42.476Z,13.00
2018-07-14T02:55:10.819Z,13.60
2018-07-14T02:57:39.175Z,14.40
2018-07-14T03:00:07.522Z,13.70
2018-07-14T03:02:35.904Z,14.87
2018-07-14T03:05:04.219Z,14.10
2018-07-14T03:07:32.572Z,14.77
2018-07-14T03:10:00.906Z,14.50
2018-07-14T03:12:29.276Z,14.00
2018-07-14T03:14:57.582Z,15.27
2018-07-14T03:17:25.953Z,13.97
2018-07-14T03:19:54.292Z,13.60
2018-07-14T03:22:22.688Z,15.53
2018-07-14T03:24:51.006Z,14.87
2018-07-14T03:27:19.360Z,15.90
2018-07-14T03:29:47.685Z,14.60
2018-07-14T03:32:16.067Z,14.53
2018-07-14T03:34:44.440Z,15.40
2018-07-14T03:37:12.853Z,14.67
2018-07-14T03:39:41.175Z,14.70
2018-07-14T03:42:09.647Z,15.10
2018-07-14T03:44:38.653Z,14.30
2018-07-14T03:47:06.999Z,14.63
2018-07-14T03:49:35.340Z,14.93
2018-07-14T03:52:03.726Z,15.17
2018-07-14T03:54:32.089Z,15.77
2018-07-14T03:57:00.495Z,15.40
2018-07-14T03:59:28.884Z,16.60
2018-07-14T04:01:57.827Z,17.07
2018-07-14T04:04:26.186Z,17.27
2018-07-14T04:06:54.515Z,17.57
2018-07-14T04:09:22.878Z,16.50
2018-07-14T04:11:51.261Z,16.43
2018-07-14T04:14:19.619Z,16.43
2018-07-14T04:16:47.999Z,17.10
2018-07-14T04:19:16.439Z,17.13
2018-07-14T04:21:44.806Z,16.73
2018-07-14T04:24:13.165Z,16.23
2018-07-14T04:26:41.492Z,17.13
2018-07-14T04:29:09.827Z,16.30
2018-07-14T04:31:38.214Z,15.90
2018-07-14T04:34:06.573Z,16.03
2018-07-14T04:36:34.898Z,16.20
2018-07-14T04:39:03.809Z,17.13
2018-07-14T04:41:32.166Z,16.80
2018-07-14T04:44:00.602Z,17.20
2018-07-14T04:46:28.918Z,16.80
2018-07-14T04:48:57.353Z,17.13
2018-07-14T04:51:25.774Z,18.27
2018-07-14T04:53:54.148Z,18.77
2018-07-14T04:56:22.590Z,22.23
2018-07-14T04:58:51.412Z,20.07
2018-07-14T05:01:19.732Z,22.83
2018-07-14T05:03:48.203Z,20.77
2018-07-14T05:06:16.637Z,20.53
2018-07-14T05:08:45.024Z,21.63
2018-07-14T05:11:13.363Z,21.13
2018-07-14T05:13:41.726Z,20.33
2018-07-14T05:16:10.092Z,21.47
2018-07-14T05:18:38.432Z,21.17
2018-07-14T05:21:06.851Z,21.73
2018-07-14T05:23:35.234Z,23.73
2018-07-14T05:26:03.593Z,21.10
2018-07-14T05:28:32.004Z,20.47
2018-07-14T05:31:00.395Z,20.13
2018-07-14T05:33:43.487Z,20.43
2018-07-14T05:36:12.336Z,21.50
2018-07-14T05:38:40.702Z,20.33
2018-07-14T05:41:09.047Z,19.50
2018-07-14T05:43:37.411Z,19.87
2018-07-14T05:46:05.772Z,19.83
2018-07-14T05:48:34.136Z,20.47
2018-07-14T05:51:02.500Z,19.67
2018-07-14T05:53:30.883Z,19.70
2018-07-14T05:55:59.233Z,19.97
2018-07-14T05:58:27.594Z,20.27
2018-07-14T06:00:56.023Z,21.03
2018-07-14T06:03:24.400Z,19.87
2018-07-14T06:05:52.727Z,18.90
2018-07-14T06:08:21.080Z,19.47
2018-07-14T06:10:49.934Z,19.03
2018-07-14T06:13:18.428Z,19.90
2018-07-14T06:15:50.680Z,20.10
2018-07-14T06:18:19.095Z,19.63
2018-07-14T06:20:47.440Z,20.10
2018-07-14T06:23:15.872Z,19.93
2018-07-14T06:25:44.203Z,20.23
2018-07-14T06:28:13.702Z,21.80
2018-07-14T06:30:42.247Z,20.17
2018-07-14T06:33:10.660Z,19.53
2018-07-14T06:35:39.874Z,21.43
2018-07-14T06:38:09.710Z,20.13
2018-07-14T06:40:40.505Z,20.37
2018-07-14T06:43:08.880Z,20.20
2018-07-14T06:45:37.324Z,20.50
2018-07-14T06:48:05.652Z,19.87
2018-07-14T06:50:36.165Z,20.93
2018-07-14T06:53:04.923Z,21.43
2018-07-14T06:55:33.280Z,20.10
2018-07-14T06:58:02.350Z,20.53
2018-07-14T07:00:43.018Z,21.00
2018-07-14T07:03:11.357Z,21.50
2018-07-14T07:05:39.764Z,21.33
2018-07-14T07:08:08.173Z,21.30
2018-07-14T07:10:36.546Z,21.70
2018-07-14T07:13:04.898Z,21.77
2018-07-14T07:15:33.286Z,21.23
2018-07-14T07:18:01.659Z,20.57
2018-07-14T07:20:30.132Z,20.50
2018-07-14T07:22:58.477Z,21.27
2018-07-14T07:25:26.960Z,20.57
2018-07-14T07:27:56.472Z,20.43
2018-07-14T07:30:24.877Z,21.37
2018-07-14T07:32:53.260Z,20.40
2018-07-14T07:35:21.721Z,19.40
2018-07-14T07:37:50.341Z,19.30
2018-07-14T07:40:18.980Z,21.03
2018-07-14T07:42:48.085Z,20.50
2018-07-14T07:45:16.455Z,22.33
2018-07-14T07:47:44.795Z,21.00
2018-07-14T07:50:13.165Z,20.57
2018-07-14T07:52:41.506Z,21.70
2018-07-14T07:55:09.977Z,20.27
2018-07-14T07:57:38.668Z,20.67
2018-07-14T08:00:07.208Z,20.47
2018-07-14T08:02:35.533Z,20.23
2018-07-14T08:05:03.998Z,20.27
2018-07-14T08:07:32.343Z,19.30
2018-07-14T08:10:00.820Z,18.30
2018-07-14T08:12:29.174Z,18.40
2018-07-14T08:14:57.564Z,18.13
2018-07-14T08:17:25.899Z,18.50
2018-07-14T08:19:54.746Z,17.90
2018-07-14T08:22:23.064Z,17.77
2018-07-14T08:24:51.439Z,17.60
2018-07-14T08:27:21.051Z,18.90
2018-07-14T08:29:49.505Z,17.70
2018-07-14T08:32:17.875Z,18.10
2018-07-14T08:34:46.255Z,17.47
2018-07-14T08:37:14.583Z,17.57
2018-07-14T08:39:43.071Z,17.53
2018-07-14T08:42:11.412Z,17.70
2018-07-14T08:44:39.770Z,17.50
2018-07-14T08:47:08.190Z,17.13
2018-07-14T08:49:36.547Z,16.37
2018-07-14T08:52:04.952Z,15.73
2018-07-14T08:54:33.960Z,17.13
2018-07-14T08:57:02.300Z,16.67
2018-07-14T08:59:30.757Z,15.47
2018-07-14T09:01:59.131Z,15.95
2018-07-14T09:04:27.793Z,15.18
2018-07-14T09:06:56.236Z,15.60
2018-07-14T09:09:24.656Z,15.15
2018-07-14T09:11:53.046Z,14.98
2018-07-14T09:14:21.444Z,15.45
2018-07-14T09:16:49.881Z,15.32
2018-07-14T09:19:18.849Z,15.65
2018-07-14T09:21:47.241Z,15.08
2018-07-14T09:24:15.635Z,15.63
2018-07-14T09:26:44.888Z,15.00
2018-07-14T09:29:13.721Z,15.95
2018-07-14T09:31:42.168Z,14.75
2018-07-14T09:34:10.581Z,14.25
2018-07-14T09:36:39.326Z,15.40
2018-07-14T09:39:07.922Z,14.38
2018-07-14T09:41:36.374Z,14.30
2018-07-14T09:44:04.780Z,14.75
2018-07-14T09:46:33.233Z,15.13
2018-07-14T09:49:01.549Z,14.45
2018-07-14T09:51:29.906Z,14.50
2018-07-14T09:53:58.297Z,13.15
2018-07-14T09:56:26.863Z,13.35
2018-07-14T09:58:55.390Z,13.30
2018-07-14T10:01:24.130Z,12.88
2018-07-14T10:03:53.324Z,12.50
2018-07-14T10:06:22.388Z,11.73
2018-07-14T10:08:50.937Z,11.90
2018-07-14T10:11:19.580Z,11.65
2018-07-14T10:13:48.677Z,10.80
2018-07-14T10:16:17.063Z,11.40
2018-07-14T10:18:45.492Z,12.45
2018-07-14T10:21:13.874Z,11.55
2018-07-14T10:23:42.229Z,12.58
2018-07-14T10:26:10.769Z,10.85
2018-07-14T10:28:39.190Z,11.30
2018-07-14T10:31:07.934Z,11.00
2018-07-14T10:33:36.570Z,10.93
2018-07-14T10:36:07.556Z,10.50
2018-07-14T10:38:36.009Z,10.60
2018-07-14T10:41:04.536Z,11.40
2018-07-14T10:43:33.129Z,9.90
2018-07-14T10:46:03.404Z,11.30
2018-07-14T10:48:31.847Z,11.28
2018-07-14T11:32:16.061Z,6.85
2018-07-14T11:34:52.639Z,6.95
2018-07-14T11:37:23.679Z,6.25
2018-07-14T11:39:58.041Z,6.20
2018-07-14T11:42:28.350Z,6.47
2018-07-14T11:45:01.530Z,7.05
2018-07-14T11:47:44.527Z,6.50
2018-07-14T11:50:15.180Z,7.15
2018-07-14T11:52:49.559Z,7.85
2018-07-14T11:55:19.411Z,6.87
2018-07-14T11:57:51.713Z,7.55
2018-07-14T12:03:01.087Z,8.08
2018-07-14T12:05:37.811Z,7.05
2018-07-14T12:08:12.401Z,7.53
2018-07-14T12:10:46.702Z,7.35
2018-07-14T12:13:22.097Z,7.97
2018-07-14T12:16:13.135Z,7.60
2018-07-14T12:19:14.957Z,6.87
2018-07-14T12:22:13.624Z,6.70
2018-07-14T12:25:03.597Z,7.65
2018-07-14T12:28:03.994Z,7.53
2018-07-14T12:30:50.514Z,8.18
2018-07-14T12:33:58.791Z,8.23
2018-07-14T12:36:38.906Z,9.30
2018-07-14T12:39:10.838Z,8.55
2018-07-14T12:41:48.807Z,7.83
2018-07-14T12:44:27.430Z,8.80
2018-07-14T12:47:07.683Z,8.13
2018-07-14T12:49:51.785Z,8.00
2018-07-14T12:52:24.159Z,8.20
2018-07-14T12:55:09.553Z,7.67
2018-07-14T12:57:49.648Z,8.13
2018-07-14T13:00:30.861Z,8.78
2018-07-14T13:03:15.664Z,8.40
2018-07-14T13:05:54.167Z,8.40
2018-07-14T13:08:26.100Z,8.63
2018-07-14T13:11:05.307Z,7.83
2018-07-14T13:13:53.994Z,8.08
2018-07-14T13:19:21.477Z,8.53
2018-07-14T13:21:56.447Z,8.15
2018-07-14T13:24:50.385Z,8.83
2018-07-14T13:27:31.766Z,8.90
2018-07-14T13:30:13.420Z,8.40
2018-07-14T13:32:58.823Z,8.90
2018-07-14T13:35:41.285Z,7.50
2018-07-14T13:38:22.087Z,8.20
2018-07-14T13:40:56.192Z,7.97
2018-07-14T13:43:47.952Z,7.78
2018-07-14T13:46:26.220Z,8.28
2018-07-14T13:49:07.823Z,7.97
2018-07-14T13:51:58.794Z,8.53
2018-07-14T13:54:41.418Z,7.80
2018-07-14T13:57:42.495Z,8.13
2018-07-14T14:00:18.314Z,7.80
2018-07-14T14:02:56.430Z,8.48
2018-07-14T14:05:45.046Z,8.93
2018-07-14T14:08:23.903Z,9.00
2018-07-14T14:13:52.716Z,9.50
2018-07-14T14:16:31.795Z,8.78
2018-07-14T14:19:11.381Z,8.28
2018-07-14T14:24:42.094Z,8.90
2018-07-14T14:30:08.846Z,7.65
2018-07-14T14:32:48.131Z,8.53
2018-07-14T14:35:31.416Z,8.08
2018-07-14T14:38:13.684Z,7.80
2018-07-14T14:40:47.405Z,7.72
2018-07-14T14:43:19.167Z,7.53
2018-07-14T14:45:51.494Z,6.97
2018-07-14T14:48:23.222Z,7.28
2018-07-14T14:51:01.610Z,7.37
2018-07-14T14:53:38.835Z,8.05
2018-07-14T14:56:16.723Z,7.20
2018-07-14T14:58:49.615Z,7.90
2018-07-14T15:01:19.759Z,8.30
2018-07-14T15:03:53.248Z,7.35
2018-07-14T15:06:28.732Z,7.12
2018-07-14T15:09:00.998Z,7.45
2018-07-14T15:11:31.822Z,7.58
2018-07-14T15:14:06.668Z,7.58
2018-07-14T15:16:39.896Z,7.50
2018-07-14T15:19:13.413Z,7.40
2018-07-14T15:21:47.177Z,7.37
2018-07-14T15:24:21.139Z,7.25
2018-07-14T15:26:53.062Z,6.87
2018-07-14T15:29:27.709Z,6.83
2018-07-14T15:32:04.236Z,7.10
2018-07-14T15:34:34.929Z,7.62
2018-07-14T15:37:15.109Z,6.40
2018-07-14T15:39:46.466Z,6.65
2018-07-14T15:42:16.799Z,6.78
2018-07-14T15:45:00.669Z,6.62
2018-07-14T15:47:49.447Z,6.83
2018-07-14T15:50:18.407Z,6.67
2018-07-14T15:52:47.515Z,7.30
2018-07-14T15:55:17.874Z,7.55
2018-07-14T15:57:50.609Z,7.90
2018-07-14T16:00:19.313Z,7.70
2018-07-14T16:02:49.279Z,7.62
2018-07-14T16:05:22.987Z,7.92
2018-07-14T16:07:54.077Z,8.38
2018-07-14T16:10:25.694Z,7.28
2018-07-14T16:12:59.100Z,7.60
2018-07-14T16:15:35.100Z,7.25
2018-07-14T16:18:09.329Z,7.62
2018-07-14T16:20:44.611Z,7.47
2018-07-14T16:23:20.040Z,7.55
2018-07-14T16:25:53.385Z,7.55
2018-07-14T16:28:27.057Z,8.60
2018-07-14T16:31:00.512Z,7.50
2018-07-14T16:33:34.073Z,7.47
2018-07-14T16:36:08.167Z,7.70
2018-07-14T16:38:44.340Z,7.58
2018-07-14T16:41:20.120Z,7.00
2018-07-14T16:43:52.480Z,7.20
2018-07-14T16:46:24.816Z,7.20
2018-07-14T16:48:58.472Z,7.67
2018-07-14T16:51:31.277Z,7.47
2018-07-14T16:54:02.287Z,6.72
2018-07-14T16:56:33.346Z,7.15
2018-07-14T16:59:07.345Z,7.67
2018-07-14T17:01:43.871Z,7.67
2018-07-14T17:04:19.201Z,7.60
2018-07-14T17:06:57.417Z,7.25
2018-07-14T17:09:28.700Z,7.50
2018-07-14T17:12:04.980Z,7.33
2018-07-14T17:14:37.773Z,7.60
2018-07-14T17:17:10.469Z,7.12
2018-07-14T17:19:48.249Z,6.83
2018-07-14T17:22:28.294Z,6.90
2018-07-14T17:25:02.448Z,7.30
2018-07-14T17:27:41.522Z,6.90
2018-07-14T17:30:18.354Z,6.72
2018-07-14T17:32:50.674Z,7.40
2018-07-14T17:35:31.065Z,7.00
2018-07-14T17:38:07.765Z,7.25
2018-07-14T17:40:42.032Z,6.92
2018-07-14T17:43:13.374Z,6.95
2018-07-14T17:45:46.195Z,7.17
2018-07-14T17:48:19.131Z,7.60
2018-07-14T17:50:52.952Z,7.35
2018-07-14T17:53:29.268Z,6.78
2018-07-14T17:56:04.352Z,6.92
2018-07-14T17:58:50.023Z,7.15
2018-07-14T18:01:31.176Z,6.53
2018-07-14T18:04:05.868Z,7.15
2018-07-14T18:06:42.614Z,7.35
2018-07-14T18:09:36.132Z,7.17
2018-07-14T18:12:16.645Z,7.00
2018-07-14T18:14:51.270Z,7.05
2018-07-14T18:17:30.708Z,7.12
2018-07-14T18:20:12.655Z,8.05
2018-07-14T18:22:44.055Z,7.42
2018-07-14T18:25:17.585Z,7.20
2018-07-14T18:27:52.792Z,7.67
2018-07-14T18:30:26.859Z,7.70
2018-07-14T18:32:58.405Z,7.37
2018-07-14T18:35:29.701Z,7.95
2018-07-14T18:38:08.017Z,8.28
2018-07-14T18:40:43.963Z,7.85
2018-07-14T18:43:23.100Z,7.85
2018-07-14T18:46:03.658Z,8.10
2018-07-14T18:48:42.425Z,10.18
2018-07-14T18:51:14.287Z,17.57
2018-07-14T18:53:48.926Z,9.65
2018-07-14T18:56:46.276Z,13.95
2018-07-14T18:59:18.904Z,15.88
2018-07-14T19:01:52.391Z,10.18
2018-07-14T19:04:23.970Z,10.95
2018-07-14T19:06:56.336Z,9.03
2018-07-14T19:09:29.258Z,9.90
2018-07-14T19:12:05.162Z,9.10
2018-07-14T19:14:41.910Z,9.00
2018-07-14T19:17:17.462Z,9.33
2018-07-14T19:19:55.379Z,9.25
2018-07-14T19:22:32.981Z,9.53
2018-07-14T19:25:07.238Z,10.65
2018-07-14T19:27:49.515Z,12.60
2018-07-14T19:30:23.807Z,10.23
2018-07-14T19:32:55.475Z,9.93
2018-07-14T19:35:27.267Z,10.35
2018-07-14T19:37:59.686Z,10.90
2018-07-14T19:40:29.066Z,10.35
2018-07-14T19:42:59.157Z,10.15
2018-07-14T19:45:28.717Z,9.98
2018-07-14T19:47:58.097Z,11.78
2018-07-14T19:50:27.359Z,10.78
2018-07-14T19:52:56.887Z,11.40
2018-07-14T19:55:27.315Z,10.78
2018-07-14T19:57:56.906Z,11.68
2018-07-14T20:00:26.138Z,11.00
2018-07-14T20:02:56.007Z,11.68
2018-07-14T20:05:24.493Z,11.18
2018-07-14T20:07:57.497Z,11.83
2018-07-14T20:10:26.339Z,11.83
2018-07-14T20:12:54.778Z,12.53
2018-07-14T20:15:23.201Z,11.55
2018-07-14T20:17:51.957Z,12.15
2018-07-14T20:20:20.434Z,12.85
2018-07-14T20:22:48.900Z,12.60
2018-07-14T20:25:19.757Z,12.45
2018-07-14T20:27:48.163Z,12.63
2018-07-14T20:30:20.279Z,11.53
2018-07-14T20:32:48.794Z,12.75
2018-07-14T20:35:17.404Z,12.50
2018-07-14T20:37:45.815Z,13.85
2018-07-14T20:40:14.226Z,13.20
2018-07-14T20:42:42.656Z,12.03
2018-07-14T20:45:11.010Z,11.63
2018-07-14T20:47:39.557Z,12.15
2018-07-14T20:50:07.996Z,12.23
2018-07-14T20:52:36.432Z,12.10
2018-07-14T20:55:04.912Z,12.43
2018-07-14T20:57:33.347Z,12.28
2018-07-14T21:00:01.774Z,12.90
2018-07-14T21:02:30.180Z,12.68
2018-07-14T21:04:58.576Z,12.25
2018-07-14T21:07:27.030Z,12.93
2018-07-14T21:09:55.494Z,13.10
2018-07-14T21:12:24.063Z,12.47
2018-07-14T21:14:52.434Z,12.40
2018-07-14T21:17:20.924Z,12.00
2018-07-14T21:19:49.331Z,12.00
2018-07-14T21:22:17.732Z,11.18
2018-07-14T21:24:46.123Z,10.32
2018-07-14T21:27:14.713Z,10.43
2018-07-14T21:29:43.157Z,10.50
2018-07-14T21:32:11.610Z,10.27
2018-07-14T21:34:40.048Z,9.88
2018-07-14T21:37:08.515Z,9.87
2018-07-14T21:39:36.957Z,8.58
2018-07-14T21:42:05.380Z,9.93
2018-07-14T21:44:33.796Z,10.00
2018-07-14T21:47:02.279Z,9.03
2018-07-14T21:49:30.687Z,8.93
2018-07-14T21:51:59.098Z,8.33
2018-07-14T21:54:27.542Z,9.13
2018-07-14T21:56:55.928Z,7.87
2018-07-14T21:59:24.296Z,8.27
2018-07-14T22:01:53.429Z,9.10
2018-07-14T22:04:22.402Z,7.27
2018-07-14T22:06:51.732Z,7.45
2018-07-14T22:09:20.185Z,7.13
2018-07-14T22:11:48.606Z,7.67
2018-07-14T22:14:17.056Z,7.57
2018-07-14T22:16:45.472Z,6.97
2018-07-14T22:19:13.887Z,6.70
2018-07-14T22:21:42.300Z,7.10
2018-07-14T22:24:10.748Z,6.60
2018-07-14T22:26:39.206Z,7.10
2018-07-14T22:29:07.698Z,7.53
2018-07-14T22:31:36.142Z,7.10
2018-07-14T22:34:04.681Z,7.00
2018-07-14T22:36:33.175Z,6.23
2018-07-14T22:39:01.546Z,6.80
2018-07-14T22:41:30.045Z,6.60
2018-07-14T22:43:58.578Z,6.47
2018-07-14T22:46:26.969Z,6.70
2018-07-14T22:48:55.391Z,6.67
2018-07-14T22:51:23.843Z,6.50
2018-07-14T22:53:52.377Z,7.10
2018-07-14T22:56:20.891Z,6.37
2018-07-14T22:58:49.351Z,6.27
2018-07-14T23:01:17.729Z,6.20
2018-07-14T23:03:46.188Z,6.10
2018-07-14T23:06:14.686Z,6.70
2018-07-14T23:08:43.165Z,5.87
2018-07-14T23:11:11.644Z,6.00
2018-07-14T23:13:40.095Z,6.40
2018-07-14T23:16:08.481Z,6.80
2018-07-14T23:18:37.040Z,6.70
2018-07-14T23:21:05.534Z,5.77
2018-07-14T23:23:33.958Z,5.50
2018-07-14T23:26:02.427Z,5.87
2018-07-14T23:28:31.232Z,5.73
2018-07-14T23:30:59.683Z,5.93
2018-07-14T23:33:28.312Z,6.40
2018-07-14T23:35:57.227Z,5.67
2018-07-14T23:38:25.844Z,6.00
2018-07-14T23:40:54.313Z,5.80
2018-07-14T23:43:22.732Z,5.90
2018-07-14T23:45:51.125Z,6.00
2018-07-14T23:48:19.518Z,6.00
2018-07-14T23:50:48.023Z,6.00
2018-07-14T23:53:16.620Z,6.40
2018-07-14T23:55:45.024Z,6.03
2018-07-14T23:58:13.603Z,6.30
